Jaromer, Czech Republic
Current Conditions -  °F | °C
As of 6:00 PM on Saturday 20 Dec 2014 (Local Time) from LKPD Reporting Station
Overcast Overcast  
Wind Chill: 32°   Ceiling: 4500
Heat Index: 41°   Visibility: 6mi
Dew Point: 30°   Wind: 17mph
Humidity: 65%   Direction: 240°WSW
Pressure: 29.94"   Gusts: NA
Location:  50.35°N, 15.91°E
Report Text: LKPD 201600Z 24015KT 9999 OVC045 05/M01 Q1014 NOSIG
Loading
Personal Weather Stations






























Interactive Weather Map New forecast layout! Learn more

10-Day Weather Forecast

Advertisements
Track Severe Weather on mobile